Time;durP1;ratioP1;P1;durP2;ratioP2;P2;SDS_P1;SDS_P2;PMS_P1;PMS_P2;Temp;Humidity;BMP_temperature;BMP_pressure;BME280_temperature;BME280_humidity;BME280_pressure;Samples;Min_cycle;Max_cycle;Signal;HPM_P1;HPM_P2
2022/07/30 00:00:17;;;;;;;0.93;0.80;;;20.70;1.00;;;;;;5136026;28;20619;-73
2022/07/30 00:02:44;;;;;;;0.80;0.60;;;20.70;99.90;;;;;;5136793;28;20490;-73
2022/07/30 00:05:11;;;;;;;1.20;0.80;;;20.60;1.00;;;;;;5136460;28;20451;-74
2022/07/30 00:07:38;;;;;;;1.47;0.80;;;20.60;99.90;;;;;;5136427;28;20448;-73
2022/07/30 00:10:05;;;;;;;2.70;0.70;;;20.60;1.00;;;;;;5136376;28;20451;-73
2022/07/30 00:12:32;;;;;;;1.10;0.77;;;20.60;1.00;;;;;;5136026;28;20535;-73
2022/07/30 00:14:59;;;;;;;1.53;0.73;;;20.50;1.00;;;;;;5135939;28;20523;-73
2022/07/30 00:17:27;;;;;;;0.80;0.80;;;20.40;1.00;;;;;;5136653;28;20917;-72
2022/07/30 00:19:54;;;;;;;1.27;0.90;;;20.50;1.00;;;;;;5138619;27;20451;-74
2022/07/30 00:22:21;;;;;;;1.37;0.90;;;20.70;99.90;;;;;;5139921;27;20475;-73
2022/07/30 00:24:48;;;;;;;1.17;0.90;;;20.70;99.90;;;;;;5138776;27;20930;-74
2022/07/30 00:27:15;;;;;;;1.63;1.00;;;20.70;99.90;;;;;;5137636;27;20863;-73
2022/07/30 00:29:42;;;;;;;1.27;0.80;;;20.70;99.90;;;;;;5137948;27;20547;-74
2022/07/30 00:32:09;;;;;;;2.17;0.93;;;20.80;99.90;;;;;;5137984;27;20521;-72
2022/07/30 00:34:37;;;;;;;1.60;0.90;;;20.70;27.20;;;;;;5137897;27;20547;-72
2022/07/30 00:37:04;;;;;;;1.10;0.90;;;20.70;99.90;;;;;;5138287;27;20522;-73
2022/07/30 00:39:31;;;;;;;1.50;1.10;;;20.70;1.00;;;;;;5137767;27;20475;-73
2022/07/30 00:42:01;;;;;;;1.10;1.00;;;20.80;1.00;;;;;;5138226;27;20591;-74
2022/07/30 00:44:29;;;;;;;1.50;1.00;;;20.80;99.90;;;;;;5138557;27;20502;-74
2022/07/30 00:46:56;;;;;;;1.30;1.00;;;20.80;99.90;;;;;;5138883;27;20440;-74
2022/07/30 00:49:23;;;;;;;1.20;1.10;;;20.80;1.00;;;;;;5138219;27;20547;-73
2022/07/30 00:51:52;;;;;;;1.30;1.00;;;20.80;1.00;;;;;;5138377;27;20475;-73
2022/07/30 00:54:20;;;;;;;1.40;1.10;;;20.70;72.70;;;;;;5139032;27;20858;-73
2022/07/30 00:56:47;;;;;;;1.80;1.10;;;20.50;1.00;;;;;;5139883;27;20479;-73
2022/07/30 00:59:14;;;;;;;1.00;0.80;;;20.50;99.90;;;;;;5139391;27;20763;-74
2022/07/30 01:01:41;;;;;;;1.40;1.00;;;20.50;99.90;;;;;;5139548;27;20487;-73
2022/07/30 01:04:10;;;;;;;1.13;1.03;;;20.70;1.00;;;;;;5139519;27;20451;-73
2022/07/30 01:06:38;;;;;;;1.10;1.00;;;20.60;99.90;;;;;;5138904;27;20490;-72
2022/07/30 01:09:06;;;;;;;1.23;0.87;;;20.60;1.00;;;;;;5139083;27;20954;-73
2022/07/30 01:11:37;;;;;;;0.90;0.80;;;20.60;1.00;;;;;;5139029;27;20543;-73
2022/07/30 01:14:05;;;;;;;1.60;1.03;;;20.60;1.00;;;;;;5138830;27;20443;-72
2022/07/30 01:16:32;;;;;;;1.10;0.80;;;20.70;99.90;;;;;;5139268;27;20475;-74
2022/07/30 01:21:51;;;;;;;1.20;1.00;;;20.70;99.90;;;;;;5139070;27;20500;-75
2022/07/30 01:24:28;;;;;;;2.23;0.90;;;20.80;24.80;;;;;;5138617;27;20847;-74
2022/07/30 01:26:58;;;;;;;1.27;0.90;;;20.70;99.90;;;;;;5139092;27;20539;-74
2022/07/30 01:29:27;;;;;;;0.97;0.87;;;20.60;1.00;;;;;;5139439;27;20483;-74
2022/07/30 01:31:58;;;;;;;1.20;0.90;;;20.40;1.00;;;;;;5139128;27;20443;-74
2022/07/30 01:34:27;;;;;;;1.10;0.87;;;20.40;99.90;;;;;;5137782;27;20458;-73
2022/07/30 01:36:57;;;;;;;1.47;0.90;;;20.20;46.60;;;;;;5137925;27;20766;-73
2022/07/30 01:39:26;;;;;;;1.13;0.90;;;20.10;1.00;;;;;;5137399;27;20458;-74
2022/07/30 01:41:56;;;;;;;1.20;0.90;;;20.10;99.90;;;;;;5137119;27;20494;-74
2022/07/30 01:44:25;;;;;;;1.10;0.90;;;20.10;99.90;;;;;;5138272;27;20530;-73
2022/07/30 01:46:54;;;;;;;1.03;0.90;;;20.10;99.90;;;;;;5138877;27;20863;-73
2022/07/30 01:49:24;;;;;;;1.07;0.90;;;20.00;1.00;;;;;;5139058;27;20458;-73
2022/07/30 01:51:52;;;;;;;1.20;0.90;;;20.00;99.90;;;;;;5138595;27;20464;-73
2022/07/30 01:54:19;;;;;;;2.03;1.10;;;19.90;99.90;;;;;;5138615;27;20903;-73
2022/07/30 01:56:49;;;;;;;1.10;0.90;;;19.90;1.00;;;;;;5138531;27;20581;-73
2022/07/30 01:59:20;;;;;;;1.20;1.10;;;19.90;99.90;;;;;;5138334;27;20451;-73
2022/07/30 02:01:48;;;;;;;1.30;0.90;;;20.00;99.90;;;;;;5138465;27;20489;-74
2022/07/30 02:04:15;;;;;;;1.00;0.90;;;20.10;99.90;;;;;;5138313;27;20440;-73
2022/07/30 02:06:46;;;;;;;1.03;0.80;;;20.10;99.90;;;;;;5137623;27;20571;-73
2022/07/30 02:09:19;;;;;;;1.30;1.00;;;20.20;99.90;;;;;;5137186;27;20902;-73
2022/07/30 02:14:41;;;;;;;1.00;0.90;;;20.00;99.90;;;;;;5137576;27;20881;-73
2022/07/30 02:17:13;;;;;;;1.17;0.90;;;20.00;1.00;;;;;;5138183;27;20779;-73
2022/07/30 02:19:43;;;;;;;1.30;0.87;;;20.00;1.00;;;;;;5137335;27;20462;-73
2022/07/30 02:22:15;;;;;;;1.00;0.80;;;20.00;1.00;;;;;;5137181;27;20800;-73
2022/07/30 02:24:43;;;;;;;2.10;1.10;;;19.90;99.90;;;;;;5136965;27;20835;-73
2022/07/30 02:27:13;;;;;;;1.10;0.80;;;19.70;99.90;;;;;;5136851;27;20500;-73
2022/07/30 02:29:44;;;;;;;1.30;0.80;;;19.50;1.00;;;;;;5137699;27;20930;-73
2022/07/30 02:32:15;;;;;;;1.07;0.90;;;19.50;1.00;;;;;;5138403;27;20459;-73
2022/07/30 02:34:44;;;;;;;2.63;0.90;;;19.40;1.00;;;;;;5137854;27;20491;-73
2022/07/30 02:37:13;;;;;;;1.30;0.80;;;19.30;1.00;;;;;;5137876;27;20681;-73
2022/07/30 02:39:43;;;;;;;1.17;0.93;;;19.30;1.00;;;;;;5138072;27;20455;-73
2022/07/30 02:42:13;;;;;;;1.40;0.83;;;19.30;1.00;;;;;;5137573;27;20447;-73
2022/07/30 02:44:45;;;;;;;2.10;0.93;;;19.30;1.00;;;;;;5137831;27;20964;-73
2022/07/30 02:47:15;;;;;;;1.60;1.00;;;19.30;1.00;;;;;;5138074;27;20439;-73
2022/07/30 02:49:42;;;;;;;2.83;1.00;;;19.40;1.00;;;;;;5137609;27;20459;-73
2022/07/30 02:52:12;;;;;;;1.20;1.10;;;19.50;1.00;;;;;;5137620;27;20509;-73
2022/07/30 02:54:41;;;;;;;1.00;0.80;;;19.40;99.90;;;;;;5137447;27;20913;-73
2022/07/30 02:57:09;;;;;;;1.10;0.97;;;19.60;99.90;;;;;;5137438;27;20573;-72
2022/07/30 02:59:38;;;;;;;0.90;0.80;;;19.60;99.90;;;;;;5137578;27;20460;-73
2022/07/30 03:02:08;;;;;;;2.53;1.00;;;19.50;1.00;;;;;;5137146;27;20865;-73
2022/07/30 03:04:35;;;;;;;1.07;0.70;;;19.50;1.00;;;;;;5137601;27;20479;-73
2022/07/30 03:07:03;;;;;;;0.90;0.77;;;19.60;99.90;;;;;;5137049;27;20480;-73
2022/07/30 03:09:30;;;;;;;1.30;0.87;;;19.70;99.90;;;;;;5137273;27;20490;-73
2022/07/30 03:11:58;;;;;;;0.87;0.70;;;19.80;1.00;;;;;;5135090;27;20969;-73
2022/07/30 03:14:25;;;;;;;1.20;1.00;;;19.80;99.90;;;;;;5134365;28;20898;-73
2022/07/30 03:16:57;;;;;;;1.00;0.90;;;20.00;99.90;;;;;;5134279;28;20997;-73
2022/07/30 03:19:29;;;;;;;0.90;0.80;;;20.00;99.90;;;;;;5134404;28;20475;-73
2022/07/30 03:21:57;;;;;;;1.10;0.90;;;20.10;1.00;;;;;;5134998;28;20450;-73
2022/07/30 03:24:25;;;;;;;2.60;0.80;;;20.10;99.90;;;;;;5135046;28;20480;-73
2022/07/30 03:26:53;;;;;;;1.03;0.70;;;20.00;1.00;;;;;;5135937;28;20944;-73
2022/07/30 03:29:23;;;;;;;1.20;0.90;;;20.00;1.00;;;;;;5137122;28;20555;-73
2022/07/30 03:31:50;;;;;;;1.20;0.90;;;19.90;1.00;;;;;;5137299;28;20751;-73
2022/07/30 03:34:19;;;;;;;1.27;0.80;;;19.90;1.00;;;;;;5135644;27;20498;-73
2022/07/30 03:36:47;;;;;;;1.10;0.80;;;19.90;1.00;;;;;;5135392;28;20479;-73
2022/07/30 03:39:15;;;;;;;1.20;0.80;;;19.90;1.00;;;;;;5135050;28;20487;-73
2022/07/30 03:41:42;;;;;;;1.23;1.00;;;20.00;1.00;;;;;;5136235;28;20444;-74
2022/07/30 03:44:10;;;;;;;1.13;0.70;;;19.90;99.90;;;;;;5135373;28;20494;-73
2022/07/30 03:46:38;;;;;;;1.10;0.80;;;19.90;99.90;;;;;;5135950;28;20475;-73
2022/07/30 03:49:06;;;;;;;1.00;0.77;;;19.90;99.90;;;;;;5136444;28;20506;-73
2022/07/30 03:51:34;;;;;;;1.00;0.83;;;20.00;99.90;;;;;;5135640;28;20504;-73
2022/07/30 03:54:05;;;;;;;1.77;0.70;;;19.90;1.00;;;;;;5136375;27;20447;-73
2022/07/30 03:56:33;;;;;;;1.43;0.90;;;19.90;99.90;;;;;;5139855;27;20479;-73
2022/07/30 03:59:00;;;;;;;1.00;0.73;;;19.90;99.90;;;;;;5140018;27;20483;-72
2022/07/30 04:01:27;;;;;;;0.90;0.80;;;19.90;99.90;;;;;;5140372;27;20547;-73
2022/07/30 04:03:54;;;;;;;1.40;0.80;;;19.80;99.90;;;;;;5139924;27;20538;-73
2022/07/30 04:06:21;;;;;;;0.90;0.80;;;19.90;99.90;;;;;;5140643;27;20447;-73
2022/07/30 04:08:48;;;;;;;1.20;0.83;;;20.00;99.90;;;;;;5139679;27;20458;-73
2022/07/30 04:11:16;;;;;;;3.10;1.00;;;20.00;1.00;;;;;;5140140;27;20479;-73
2022/07/30 04:13:43;;;;;;;1.00;0.90;;;20.00;1.00;;;;;;5140161;27;20961;-73
2022/07/30 04:16:18;;;;;;;1.30;0.70;;;20.00;1.00;;;;;;5140689;27;20509;-73
2022/07/30 04:18:50;;;;;;;1.03;0.90;;;20.00;99.90;;;;;;5139805;27;20480;-73
2022/07/30 04:21:22;;;;;;;1.03;0.90;;;20.00;99.90;;;;;;5140301;27;20938;-73
2022/07/30 04:23:50;;;;;;;1.10;0.90;;;19.90;99.90;;;;;;5139725;27;20510;-73
2022/07/30 04:26:19;;;;;;;1.00;0.90;;;19.80;1.00;;;;;;5140202;27;20771;-73
2022/07/30 04:28:46;;;;;;;1.80;0.77;;;19.80;1.00;;;;;;5138826;27;20511;-73
2022/07/30 04:31:15;;;;;;;1.20;0.90;;;19.80;1.00;;;;;;5138687;27;20709;-72
2022/07/30 04:33:45;;;;;;;1.17;0.90;;;19.80;1.00;;;;;;5138399;27;21006;-72
2022/07/30 04:36:12;;;;;;;0.90;0.80;;;19.80;1.00;;;;;;5137127;27;20783;-73
2022/07/30 04:38:39;;;;;;;3.37;0.80;;;19.90;99.90;;;;;;5136604;27;20443;-73
2022/07/30 04:41:06;;;;;;;1.03;0.93;;;19.90;1.00;;;;;;5136854;27;20483;-73
2022/07/30 04:43:34;;;;;;;1.20;1.00;;;20.00;1.00;;;;;;5137598;27;20922;-73
2022/07/30 04:46:01;;;;;;;1.03;0.80;;;20.00;1.00;;;;;;5138157;27;20454;-73
2022/07/30 04:48:29;;;;;;;2.13;1.00;;;20.10;1.00;;;;;;5137942;27;20876;-73
2022/07/30 04:51:00;;;;;;;2.27;0.90;;;20.20;1.00;;;;;;5137255;27;20443;-73
2022/07/30 04:53:28;;;;;;;1.30;1.00;;;20.20;99.90;;;;;;5138155;27;20929;-73
2022/07/30 04:55:57;;;;;;;1.10;0.83;;;20.20;99.90;;;;;;5139211;27;20930;-73
2022/07/30 04:58:25;;;;;;;1.83;1.00;;;20.20;1.00;;;;;;5139217;27;20568;-73
2022/07/30 05:00:55;;;;;;;1.00;0.87;;;20.20;1.00;;;;;;5139165;27;20443;-73
2022/07/30 05:03:24;;;;;;;1.20;0.90;;;20.30;1.00;;;;;;5139319;27;20448;-72
2022/07/30 05:05:52;;;;;;;1.40;0.83;;;20.30;45.60;;;;;;5138860;27;20474;-73
2022/07/30 05:08:19;;;;;;;1.00;0.90;;;20.30;96.70;;;;;;5139279;27;20479;-73
2022/07/30 05:10:46;;;;;;;1.10;0.90;;;20.30;99.90;;;;;;5139264;27;20546;-73
2022/07/30 05:13:15;;;;;;;1.20;0.90;;;20.40;99.90;;;;;;5139472;27;20588;-73
2022/07/30 05:15:43;;;;;;;1.13;0.83;;;20.40;1.00;;;;;;5137986;27;20504;-73
2022/07/30 05:18:11;;;;;;;1.33;0.80;;;20.40;99.90;;;;;;5139016;27;20483;-72
2022/07/30 05:20:39;;;;;;;1.97;1.00;;;20.40;99.90;;;;;;5139259;27;20471;-76
2022/07/30 05:23:06;;;;;;;2.23;0.90;;;20.30;29.30;;;;;;5137517;27;20493;-75
2022/07/30 05:25:33;;;;;;;3.57;0.90;;;20.30;99.90;;;;;;5138097;27;20517;-75
2022/07/30 05:27:59;;;;;;;1.20;0.77;;;20.30;99.90;;;;;;5137757;27;21137;-74
2022/07/30 05:30:26;;;;;;;1.20;1.00;;;20.40;99.90;;;;;;5138163;27;20460;-73
2022/07/30 05:32:53;;;;;;;2.10;1.00;;;20.40;20.10;;;;;;5137253;27;20575;-74
2022/07/30 05:35:22;;;;;;;0.93;0.77;;;20.40;1.00;;;;;;5136744;27;20502;-74
2022/07/30 05:37:49;;;;;;;1.10;1.00;;;20.50;1.00;;;;;;5137542;27;20540;-74
2022/07/30 05:40:15;;;;;;;2.03;1.00;;;20.60;1.00;;;;;;5137634;27;20459;-74
2022/07/30 05:42:42;;;;;;;1.23;0.93;;;20.50;1.00;;;;;;5137496;27;20891;-74
2022/07/30 05:45:10;;;;;;;1.53;0.87;;;20.50;1.00;;;;;;5137586;27;20546;-74
2022/07/30 05:47:37;;;;;;;2.53;0.80;;;20.60;1.00;;;;;;5138078;27;20487;-74
2022/07/30 05:50:04;;;;;;;1.40;0.93;;;20.70;99.90;;;;;;5138641;27;20524;-74
2022/07/30 05:52:33;;;;;;;1.23;1.00;;;20.70;99.90;;;;;;5138312;27;20471;-74
2022/07/30 05:55:00;;;;;;;1.00;0.80;;;20.70;99.90;;;;;;5138550;27;20883;-74
2022/07/30 05:57:27;;;;;;;1.13;0.97;;;20.60;99.90;;;;;;5138485;27;20515;-74
2022/07/30 05:59:54;;;;;;;1.13;0.90;;;20.70;99.90;;;;;;5138580;27;20452;-73
2022/07/30 06:02:21;;;;;;;3.20;1.10;;;20.60;99.90;;;;;;5139645;27;20494;-77
2022/07/30 06:04:48;;;;;;;1.17;0.90;;;20.70;99.90;;;;;;5146239;27;20472;-79
2022/07/30 06:07:15;;;;;;;1.60;1.00;;;20.90;99.90;;;;;;5143307;27;20859;-78
2022/07/30 06:09:43;;;;;;;1.73;1.10;;;21.10;99.90;;;;;;5138775;27;20472;-78
2022/07/30 06:12:10;;;;;;;1.27;1.00;;;21.10;99.90;;;;;;5132384;27;20541;-77
2022/07/30 06:14:37;;;;;;;1.27;0.90;;;21.10;99.90;;;;;;5124404;27;20452;-76
2022/07/30 06:17:04;;;;;;;1.73;0.90;;;21.20;99.90;;;;;;5117690;28;20947;-76
2022/07/30 06:19:31;;;;;;;1.67;0.90;;;21.30;99.90;;;;;;5117610;28;20934;-76
2022/07/30 06:21:58;;;;;;;1.10;0.90;;;21.30;98.60;;;;;;5118046;28;20521;-74
2022/07/30 06:24:25;;;;;;;1.00;0.80;;;21.20;99.90;;;;;;5118466;28;20927;-75
2022/07/30 06:26:53;;;;;;;1.00;0.80;;;21.30;99.90;;;;;;5119399;28;20444;-75
2022/07/30 06:29:20;;;;;;;0.97;0.87;;;21.40;99.90;;;;;;5120173;28;20456;-75
2022/07/30 06:31:47;;;;;;;1.60;1.00;;;21.50;30.80;;;;;;5120960;28;20449;-76
2022/07/30 06:34:14;;;;;;;2.30;1.00;;;21.60;4.40;;;;;;5119062;28;20488;-76
2022/07/30 06:36:41;;;;;;;1.30;0.80;;;21.80;1.00;;;;;;5118284;28;20756;-76
2022/07/30 06:39:08;;;;;;;2.37;0.93;;;21.80;1.00;;;;;;5118034;28;20456;-76
2022/07/30 06:41:35;;;;;;;2.93;1.03;;;21.80;1.00;;;;;;5120865;28;20465;-77
2022/07/30 06:44:03;;;;;;;2.33;1.20;;;22.00;1.00;;;;;;5119137;28;20755;-77
2022/07/30 06:46:30;;;;;;;1.40;1.00;;;22.00;1.00;;;;;;5119102;28;20480;-76
2022/07/30 06:48:57;;;;;;;1.07;0.90;;;22.00;1.00;;;;;;5117187;28;20887;-76
2022/07/30 06:51:24;;;;;;;1.13;1.00;;;22.10;1.00;;;;;;5116606;28;20490;-76
2022/07/30 06:53:51;;;;;;;1.87;0.90;;;22.10;1.00;;;;;;5116777;28;20492;-75
2022/07/30 06:56:21;;;;;;;2.03;1.00;;;22.20;1.00;;;;;;5116818;28;20773;-76
2022/07/30 06:58:48;;;;;;;1.10;1.00;;;22.40;1.00;;;;;;5116444;28;20593;-75
2022/07/30 07:01:20;;;;;;;1.50;1.30;;;22.40;1.00;;;;;;5116602;28;20440;-76
2022/07/30 07:03:47;;;;;;;1.27;0.80;;;22.50;1.00;;;;;;5117224;28;20486;-76
2022/07/30 07:06:14;;;;;;;2.20;1.00;;;22.50;1.00;;;;;;5117003;28;20876;-76
2022/07/30 07:08:41;;;;;;;1.20;0.80;;;22.40;1.00;;;;;;5115769;28;20479;-76
2022/07/30 07:11:07;;;;;;;1.23;1.00;;;22.50;1.00;;;;;;5115819;28;20511;-76
2022/07/30 07:13:34;;;;;;;0.90;0.70;;;22.60;1.00;;;;;;5116583;28;20501;-76
2022/07/30 07:16:01;;;;;;;3.33;0.93;;;22.70;1.00;;;;;;5116699;28;20472;-76
2022/07/30 07:18:30;;;;;;;1.37;1.10;;;22.80;1.00;;;;;;5115039;28;20520;-76
2022/07/30 07:20:57;;;;;;;1.90;0.90;;;22.80;1.00;;;;;;5115889;28;20448;-75
2022/07/30 07:23:24;;;;;;;1.40;1.00;;;23.00;1.00;;;;;;5116662;28;20523;-75
2022/07/30 07:25:51;;;;;;;1.30;1.07;;;23.00;1.00;;;;;;5115652;28;20457;-76
2022/07/30 07:28:18;;;;;;;1.10;0.93;;;23.10;1.00;;;;;;5116831;28;20448;-76
2022/07/30 07:30:45;;;;;;;3.20;1.30;;;23.00;1.00;;;;;;5117855;28;20554;-76
2022/07/30 07:33:12;;;;;;;1.10;0.80;;;22.90;1.00;;;;;;5118257;28;20912;-77
2022/07/30 07:35:40;;;;;;;1.30;1.00;;;23.00;1.00;;;;;;5116183;28;20524;-76
2022/07/30 07:38:07;;;;;;;1.30;1.00;;;23.10;1.00;;;;;;5122256;27;20963;-76
2022/07/30 07:40:34;;;;;;;1.00;0.90;;;23.10;1.00;;;;;;5116705;28;20820;-76
2022/07/30 07:43:24;;;;;;;2.27;0.90;;;23.20;1.00;;;;;;5120903;28;20501;-75
2022/07/30 07:45:51;;;;;;;3.00;1.10;;;23.30;1.00;;;;;;5117700;28;20453;-75
2022/07/30 07:48:18;;;;;;;0.90;0.80;;;23.40;1.00;;;;;;5118752;28;20439;-75
2022/07/30 07:50:47;;;;;;;1.13;1.00;;;23.50;1.00;;;;;;5116469;28;20448;-75
2022/07/30 07:53:14;;;;;;;1.20;0.87;;;23.30;1.00;;;;;;5117029;28;20452;-74
2022/07/30 07:55:41;;;;;;;1.10;0.90;;;23.30;1.00;;;;;;5118304;28;20460;-76
2022/07/30 07:58:10;;;;;;;1.97;0.90;;;23.40;1.00;;;;;;5118259;28;20537;-76
2022/07/30 08:00:37;;;;;;;1.77;1.30;;;23.40;1.00;;;;;;5117362;28;20459;-76
2022/07/30 08:03:04;;;;;;;1.67;0.90;;;23.50;1.00;;;;;;5115861;28;20448;-76
2022/07/30 08:05:31;;;;;;;2.00;0.97;;;23.60;1.00;;;;;;5118591;28;20515;-78
2022/07/30 08:07:59;;;;;;;0.93;0.80;;;23.60;1.00;;;;;;5120003;28;20515;-73
2022/07/30 08:10:27;;;;;;;1.10;0.90;;;23.60;1.00;;;;;;5119475;28;20456;-73
2022/07/30 08:12:54;;;;;;;1.50;0.90;;;23.80;1.00;;;;;;5138491;27;20511;-76
2022/07/30 08:15:21;;;;;;;1.10;0.80;;;23.90;1.00;;;;;;5139848;27;20444;-75
2022/07/30 08:17:48;;;;;;;1.20;0.90;;;24.00;1.00;;;;;;5138328;27;20471;-74
2022/07/30 08:20:15;;;;;;;1.70;0.80;;;24.10;1.00;;;;;;5134792;27;20447;-74
2022/07/30 08:22:42;;;;;;;1.00;0.90;;;24.00;1.00;;;;;;5137875;27;20464;-76
2022/07/30 08:25:11;;;;;;;1.27;0.83;;;23.90;1.00;;;;;;5138439;27;20463;-76
2022/07/30 08:27:38;;;;;;;1.73;1.57;;;23.90;1.00;;;;;;5137678;27;21038;-77
2022/07/30 08:30:06;;;;;;;2.80;0.80;;;23.90;1.00;;;;;;5137950;27;20553;-75
2022/07/30 08:32:34;;;;;;;1.43;0.90;;;24.10;1.00;;;;;;5141083;27;20550;-76
2022/07/30 08:35:01;;;;;;;0.80;0.70;;;24.20;1.00;;;;;;5138821;27;20954;-75
2022/07/30 08:37:28;;;;;;;1.00;0.90;;;24.20;1.00;;;;;;5139076;27;20455;-75
2022/07/30 08:39:55;;;;;;;4.10;0.90;;;24.20;1.00;;;;;;5138778;27;20506;-76
2022/07/30 08:42:24;;;;;;;2.53;1.00;;;24.40;1.00;;;;;;5140953;27;20543;-75
2022/07/30 08:44:53;;;;;;;2.37;0.90;;;24.50;1.00;;;;;;5138955;27;20808;-75
2022/07/30 08:47:25;;;;;;;1.20;0.90;;;24.50;1.00;;;;;;5137482;27;20444;-75
2022/07/30 08:49:54;;;;;;;1.23;0.97;;;24.60;1.00;;;;;;5138307;27;20791;-74
2022/07/30 08:52:22;;;;;;;0.90;0.70;;;24.90;1.00;;;;;;5138763;27;20487;-75
2022/07/30 08:54:49;;;;;;;1.38;0.75;;;25.00;1.00;;;;;;5137750;27;20528;-75
2022/07/30 08:57:16;;;;;;;3.37;0.80;;;25.10;1.00;;;;;;5138246;27;20206;-76
2022/07/30 08:59:45;;;;;;;1.73;1.00;;;24.80;1.00;;;;;;5140925;27;20482;-75
2022/07/30 09:02:12;;;;;;;1.00;0.90;;;24.80;1.00;;;;;;5136481;27;20447;-76
2022/07/30 09:04:42;;;;;;;4.13;0.90;;;24.80;1.00;;;;;;5136619;27;20482;-76
2022/07/30 09:07:12;;;;;;;1.10;0.80;;;24.70;1.00;;;;;;5136621;27;20475;-75
2022/07/30 09:09:39;;;;;;;1.20;0.80;;;24.70;1.00;;;;;;5134753;27;20442;-76
2022/07/30 09:12:34;;;;;;;0.97;0.80;;;24.80;1.00;;;;;;5134238;27;20514;-75
2022/07/30 09:15:11;;;;;;;4.40;0.77;;;24.90;1.00;;;;;;5133702;27;20786;-76
2022/07/30 09:17:47;;;;;;;0.93;0.83;;;24.70;1.00;;;;;;5136007;27;20783;-75
2022/07/30 09:20:14;;;;;;;1.20;1.00;;;24.80;1.00;;;;;;5137503;27;20774;-76
2022/07/30 09:22:43;;;;;;;1.37;0.90;;;24.70;1.00;;;;;;5136788;27;20444;-76
2022/07/30 09:25:10;;;;;;;1.87;0.80;;;24.70;1.00;;;;;;5136154;27;20522;-76
2022/07/30 09:27:48;;;;;;;1.50;0.90;;;24.90;1.00;;;;;;5136983;27;20439;-78
2022/07/30 09:30:17;;;;;;;0.80;0.80;;;25.20;1.00;;;;;;5137088;27;20967;-77
2022/07/30 09:32:48;;;;;;;1.00;0.80;;;25.30;1.00;;;;;;5139862;27;20786;-77
2022/07/30 09:35:16;;;;;;;1.40;0.90;;;25.50;1.00;;;;;;5139377;27;20455;-77
2022/07/30 09:37:44;;;;;;;3.17;0.80;;;25.70;1.00;;;;;;5138794;27;20463;-77
2022/07/30 09:40:13;;;;;;;1.17;0.80;;;25.70;1.00;;;;;;5136087;27;20475;-76
2022/07/30 09:42:40;;;;;;;0.80;0.70;;;25.60;1.00;;;;;;5132586;27;20485;-77
2022/07/30 09:45:09;;;;;;;1.20;0.80;;;25.60;1.00;;;;;;5131737;27;20549;-77
2022/07/30 09:47:39;;;;;;;0.70;0.70;;;25.80;1.00;;;;;;5132625;27;20256;-76
2022/07/30 09:50:08;;;;;;;1.77;0.70;;;26.10;1.00;;;;;;5137151;27;20519;-76
2022/07/30 09:52:36;;;;;;;0.70;0.60;;;26.20;1.00;;;;;;5128859;27;20460;-76
2022/07/30 09:55:03;;;;;;;1.10;0.80;;;26.00;1.00;;;;;;5140169;27;20480;-76
2022/07/30 09:57:30;;;;;;;1.30;0.80;;;26.00;1.00;;;;;;5119618;27;20947;-74
2022/07/30 10:00:00;;;;;;;1.00;0.80;;;26.00;1.00;;;;;;5131115;27;20578;-74
2022/07/30 10:02:30;;;;;;;0.90;0.80;;;25.90;1.00;;;;;;5133570;27;20875;-75
2022/07/30 10:05:11;;;;;;;0.70;0.63;;;25.70;1.00;;;;;;5132805;27;20474;-74
2022/07/30 10:07:38;;;;;;;1.57;0.70;;;26.10;1.00;;;;;;5134864;27;20984;-75
2022/07/30 10:10:06;;;;;;;0.73;0.70;;;26.30;1.00;;;;;;5131442;27;20569;-75
2022/07/30 10:12:36;;;;;;;0.90;0.70;;;26.50;1.00;;;;;;5127663;27;21122;-75
2022/07/30 10:15:06;;;;;;;1.60;0.70;;;26.70;1.00;;;;;;5134004;27;20573;-75
2022/07/30 10:17:35;;;;;;;1.30;0.73;;;27.00;1.00;;;;;;5129422;27;20464;-74
2022/07/30 10:20:04;;;;;;;1.10;0.70;;;27.30;1.00;;;;;;5132793;27;20472;-74
2022/07/30 10:22:34;;;;;;;0.80;0.70;;;27.60;1.00;;;;;;5133130;27;20475;-74
2022/07/30 10:25:02;;;;;;;1.87;0.60;;;27.80;1.00;;;;;;5131847;27;20484;-74
2022/07/30 10:27:29;;;;;;;1.50;0.80;;;27.60;1.00;;;;;;5133929;27;20462;-74
2022/07/30 10:29:58;;;;;;;0.80;0.60;;;27.80;1.00;;;;;;5131530;27;20972;-73
2022/07/30 10:32:26;;;;;;;0.60;0.60;;;27.60;1.00;;;;;;5127032;27;20449;-73
2022/07/30 10:34:54;;;;;;;1.00;0.60;;;27.80;1.00;;;;;;5120478;27;20554;-75
2022/07/30 10:37:25;;;;;;;1.07;0.60;;;28.00;1.00;;;;;;5132676;27;20468;-76
2022/07/30 10:39:57;;;;;;;0.90;0.70;;;28.20;1.00;;;;;;5129618;27;20523;-75
2022/07/30 10:42:43;;;;;;;0.87;0.60;;;27.90;1.00;;;;;;5136306;27;20472;-74
2022/07/30 10:45:18;;;;;;;0.90;0.70;;;27.80;1.00;;;;;;5137042;27;20810;-74
2022/07/30 10:47:47;;;;;;;1.20;0.70;;;27.50;1.00;;;;;;5132954;27;20495;-75
2022/07/30 10:50:16;;;;;;;0.70;0.70;;;27.50;1.00;;;;;;5132169;27;20562;-74
2022/07/30 10:52:50;;;;;;;1.63;0.80;;;28.00;1.00;;;;;;5132711;27;20514;-75
2022/07/30 10:55:20;;;;;;;1.33;0.70;;;28.10;1.00;;;;;;5125835;27;20892;-74
2022/07/30 10:58:00;;;;;;;1.63;0.90;;;28.50;1.00;;;;;;5134318;27;20452;-73
2022/07/30 11:00:28;;;;;;;0.70;0.53;;;28.90;1.00;;;;;;5133793;27;20642;-76
2022/07/30 11:03:17;;;;;;;1.20;0.70;;;29.00;1.00;;;;;;5146494;27;20475;-74
2022/07/30 11:05:45;;;;;;;0.60;0.60;;;29.40;1.00;;;;;;5128582;27;20496;-74
2022/07/30 11:08:32;;;;;;;0.63;0.47;;;28.90;1.00;;;;;;5134757;27;20997;-74
2022/07/30 11:11:01;;;;;;;1.30;0.70;;;28.70;1.00;;;;;;5136760;27;20504;-74
2022/07/30 11:13:50;;;;;;;0.73;0.60;;;28.10;1.00;;;;;;5133564;27;20460;-76
2022/07/30 11:16:19;;;;;;;2.73;0.63;;;28.40;1.00;;;;;;5134755;27;20446;-73
2022/07/30 11:19:10;;;;;;;0.70;0.60;;;28.60;1.00;;;;;;5124207;27;20487;-74
2022/07/30 11:21:38;;;;;;;0.80;0.70;;;28.50;1.00;;;;;;5135572;27;20752;-76
2022/07/30 11:24:05;;;;;;;0.63;0.53;;;28.40;1.00;;;;;;5126860;27;20460;-75
2022/07/30 11:26:52;;;;;;;0.90;0.60;;;28.20;1.00;;;;;;5133928;27;20463;-75
2022/07/30 11:29:39;;;;;;;0.80;0.60;;;27.70;1.00;;;;;;5124276;27;20454;-75
2022/07/30 11:32:26;;;;;;;0.67;0.60;;;27.30;1.00;;;;;;5132301;27;20785;-75
2022/07/30 11:35:10;;;;;;;1.00;0.70;;;27.10;1.00;;;;;;5125294;27;20905;-76
2022/07/30 11:37:56;;;;;;;0.90;0.60;;;27.10;1.00;;;;;;5130413;28;20484;-75
2022/07/30 11:40:24;;;;;;;0.70;0.60;;;27.80;1.00;;;;;;5127446;27;20545;-75
2022/07/30 11:43:19;;;;;;;0.57;0.57;;;28.20;1.00;;;;;;5134021;27;20531;-76
2022/07/30 11:45:48;;;;;;;0.70;0.60;;;28.30;1.00;;;;;;5118771;27;20463;-77
2022/07/30 11:48:17;;;;;;;1.53;0.70;;;28.20;1.00;;;;;;5124358;27;20497;-74
2022/07/30 11:50:45;;;;;;;0.90;0.60;;;28.20;1.00;;;;;;5125020;27;20939;-75
2022/07/30 11:53:15;;;;;;;0.80;0.70;;;28.20;1.00;;;;;;5133699;27;20526;-74
2022/07/30 11:55:46;;;;;;;0.80;0.67;;;28.30;1.00;;;;;;5128250;27;20560;-74
2022/07/30 11:58:27;;;;;;;0.93;0.70;;;28.60;1.00;;;;;;5133924;27;20454;-74
2022/07/30 12:00:55;;;;;;;0.70;0.60;;;28.50;1.00;;;;;;5136335;27;20225;-77
2022/07/30 12:03:26;;;;;;;0.50;0.50;;;28.70;1.00;;;;;;5122725;27;20440;-79
2022/07/30 12:05:53;;;;;;;0.90;0.60;;;28.90;1.00;;;;;;5132445;28;20448;-74
2022/07/30 12:08:22;;;;;;;1.83;1.73;;;29.20;1.00;;;;;;5126860;27;20448;-75
2022/07/30 12:10:57;;;;;;;1.30;0.60;;;29.30;1.00;;;;;;5132338;27;20516;-76
2022/07/30 12:13:25;;;;;;;0.60;0.50;;;29.40;1.00;;;;;;5121683;27;20446;-74
2022/07/30 12:15:53;;;;;;;0.70;0.50;;;29.90;1.00;;;;;;5135334;27;20487;-76
2022/07/30 12:18:27;;;;;;;0.70;0.60;;;30.60;1.00;;;;;;5130329;27;21110;-75
2022/07/30 12:20:56;;;;;;;0.70;0.50;;;31.00;1.00;;;;;;5128879;27;20888;-74
2022/07/30 12:23:23;;;;;;;0.80;0.60;;;31.10;1.00;;;;;;5128141;27;20830;-75
2022/07/30 12:25:51;;;;;;;0.80;0.53;;;31.30;1.00;;;;;;5135023;27;20585;-76
2022/07/30 12:28:23;;;;;;;2.63;0.60;;;31.20;1.00;;;;;;5130804;27;20498;-75
2022/07/30 12:30:52;;;;;;;1.40;0.50;;;30.50;1.00;;;;;;5130925;27;20439;-75
2022/07/30 12:33:19;;;;;;;0.70;0.50;;;30.80;1.00;;;;;;5135484;27;20906;-75
2022/07/30 12:35:49;;;;;;;0.60;0.60;;;31.00;1.00;;;;;;5130716;27;20562;-74
2022/07/30 12:38:17;;;;;;;0.90;0.60;;;30.70;1.00;;;;;;5137825;27;20535;-74
2022/07/30 12:40:56;;;;;;;0.70;0.53;;;30.10;1.00;;;;;;5128513;27;20920;-73
2022/07/30 12:43:43;;;;;;;0.90;0.60;;;29.70;1.00;;;;;;5127105;27;20768;-74
2022/07/30 12:46:12;;;;;;;1.13;0.53;;;29.90;1.00;;;;;;5129256;27;20472;-72
2022/07/30 12:48:49;;;;;;;0.60;0.50;;;30.40;1.00;;;;;;5138363;27;20475;-73
2022/07/30 12:51:16;;;;;;;0.70;0.47;;;30.90;1.00;;;;;;5126391;27;20468;-74
2022/07/30 12:53:43;;;;;;;0.40;0.40;;;31.00;1.00;;;;;;5132253;27;20461;-76
2022/07/30 12:56:12;;;;;;;0.60;0.60;;;30.10;1.00;;;;;;5122886;27;20479;-77
2022/07/30 12:58:39;;;;;;;0.70;0.53;;;29.70;1.00;;;;;;5132491;27;20494;-73
2022/07/30 13:01:09;;;;;;;0.63;0.50;;;30.00;1.00;;;;;;5134293;27;20437;-75
2022/07/30 13:03:40;;;;;;;1.37;0.50;;;30.60;1.00;;;;;;5132604;27;20540;-74
2022/07/30 13:06:18;;;;;;;0.67;0.50;;;30.60;1.00;;;;;;5137941;27;20951;-75
2022/07/30 13:08:46;;;;;;;0.73;0.50;;;30.30;1.00;;;;;;5126915;27;20463;-74
2022/07/30 13:11:14;;;;;;;1.00;0.60;;;30.30;1.00;;;;;;5135755;27;20474;-75